Time,TemperatureF,DewpointF,PressureIn,WindDirection,WindDirectionDegrees,WindSpeedMPH,WindSpeedGustMPH,Humidity,HourlyPrecipIn,Conditions,Clouds,dailyrainin,SoftwareType,DateUTC
2013-06-21 00:09:00,59.0,55.0,30.25,ESE,118,0.0,-999.0,87,-99.99,,,0.05,weatherlink.com 1.10,2013-06-21 04:09:00,
2013-06-21 00:24:00,59.0,55.0,30.25,ESE,118,0.0,-999.0,87,-99.99,,,0.00,weatherlink.com 1.10,2013-06-21 04:24:00,
2013-06-21 00:39:00,58.5,55.0,30.25,ESE,118,0.0,-999.0,88,-99.99,,,0.00,weatherlink.com 1.10,2013-06-21 04:39:00,
2013-06-21 00:54:00,57.8,55.0,30.25,ESE,118,0.0,-999.0,89,-99.99,,,0.00,weatherlink.com 1.10,2013-06-21 04:54:00,
2013-06-21 01:09:00,57.3,55.0,30.25,ESE,118,0.0,-999.0,90,-99.99,,,0.00,weatherlink.com 1.10,2013-06-21 05:09:00,
2013-06-21 01:24:00,56.9,54.0,30.25,ESE,118,0.0,-999.0,91,-99.99,,,0.00,weatherlink.com 1.10,2013-06-21 05:24:00,
2013-06-21 01:39:00,56.9,55.0,30.26,ESE,118,0.0,-999.0,92,-99.99,,,0.00,weatherlink.com 1.10,2013-06-21 05:39:00,
2013-06-21 01:54:00,57.1,55.0,30.25,ESE,118,0.0,-999.0,92,-99.99,,,0.00,weatherlink.com 1.10,2013-06-21 05:54:00,
2013-06-21 02:09:00,57.3,55.0,30.26,ESE,118,0.0,-999.0,93,-99.99,,,0.00,weatherlink.com 1.10,2013-06-21 06:09:00,
2013-06-21 02:24:00,57.2,55.0,30.26,ESE,118,0.0,-999.0,93,-99.99,,,0.00,weatherlink.com 1.10,2013-06-21 06:24:00,
2013-06-21 02:39:00,57.0,55.0,30.26,ESE,118,0.0,-999.0,93,-99.99,,,0.00,weatherlink.com 1.10,2013-06-21 06:39:00,
2013-06-21 02:54:00,56.5,55.0,30.25,ESE,118,0.0,-999.0,93,-99.99,,,0.00,weatherlink.com 1.10,2013-06-21 06:54:00,
2013-06-21 03:10:00,56.7,55.0,30.23,ESE,118,0.0,-999.0,94,-99.99,,,0.00,weatherlink.com 1.10,2013-06-21 07:10:00,
2013-06-21 03:25:00,56.8,55.0,30.23,ESE,118,0.0,-999.0,94,-99.99,,,0.00,weatherlink.com 1.10,2013-06-21 07:25:00,
2013-06-21 03:40:00,56.9,55.0,30.23,ESE,118,0.0,-999.0,94,-99.99,,,0.00,weatherlink.com 1.10,2013-06-21 07:40:00,
2013-06-21 03:55:00,57.1,55.0,30.23,ESE,118,1.0,-999.0,94,-99.99,,,0.00,weatherlink.com 1.10,2013-06-21 07:55:00,
2013-06-21 04:10:00,57.5,56.0,30.23,ESE,118,2.0,-999.0,94,-99.99,,,0.00,weatherlink.com 1.10,2013-06-21 08:10:00,
2013-06-21 04:25:00,57.7,56.0,30.23,East,92,0.0,-999.0,93,-99.99,,,0.00,weatherlink.com 1.10,2013-06-21 08:25:00,
2013-06-21 04:40:00,57.4,55.0,30.22,East,93,0.0,-999.0,93,-99.99,,,0.00,weatherlink.com 1.10,2013-06-21 08:40:00,
2013-06-21 04:55:00,57.6,56.0,30.22,East,92,0.0,-999.0,93,-99.99,,,0.00,weatherlink.com 1.10,2013-06-21 08:55:00,
2013-06-21 05:10:00,57.8,56.0,30.22,East,93,0.0,-999.0,93,-99.99,,,0.00,weatherlink.com 1.10,2013-06-21 09:10:00,
2013-06-21 05:25:00,57.7,55.0,30.22,East,93,0.0,-999.0,92,-99.99,,,0.00,weatherlink.com 1.10,2013-06-21 09:25:00,
2013-06-21 05:40:00,57.8,56.0,30.22,East,93,1.0,-999.0,93,-99.99,,,0.00,weatherlink.com 1.10,2013-06-21 09:40:00,
2013-06-21 05:55:00,57.6,56.0,30.22,East,93,0.0,-999.0,93,-99.99,,,0.00,weatherlink.com 1.10,2013-06-21 09:55:00,
2013-06-21 06:10:00,57.5,56.0,30.22,East,92,0.0,-999.0,93,-99.99,,,0.00,weatherlink.com 1.10,2013-06-21 10:10:00,
2013-06-21 06:25:00,57.4,56.0,30.23,East,93,0.0,-999.0,94,-99.99,,,0.00,weatherlink.com 1.10,2013-06-21 10:25:00,
2013-06-21 06:40:00,57.5,56.0,30.23,East,92,0.0,-999.0,94,-99.99,,,0.00,weatherlink.com 1.10,2013-06-21 10:40:00,
2013-06-21 06:55:00,57.8,56.0,30.22,East,93,0.0,-999.0,94,-99.99,,,0.00,weatherlink.com 1.10,2013-06-21 10:55:00,
2013-06-21 07:10:00,58.1,56.0,30.23,East,93,0.0,-999.0,94,-99.99,,,0.00,weatherlink.com 1.10,2013-06-21 11:10:00,
2013-06-21 07:25:00,58.8,57.0,30.23,East,93,0.0,-999.0,94,-99.99,,,0.00,weatherlink.com 1.10,2013-06-21 11:25:00,
2013-06-21 07:40:00,59.1,57.0,30.23,East,93,0.0,-999.0,93,-99.99,,,0.00,weatherlink.com 1.10,2013-06-21 11:40:00,
2013-06-21 07:55:00,59.9,58.0,30.23,East,93,0.0,-999.0,92,-99.99,,,0.00,weatherlink.com 1.10,2013-06-21 11:55:00,
2013-06-21 08:10:00,60.5,57.0,30.23,East,93,0.0,-999.0,89,-99.99,,,0.00,weatherlink.com 1.10,2013-06-21 12:10:00,
2013-06-21 08:25:00,61.4,57.0,30.23,SE,131,3.0,-999.0,84,-99.99,,,0.00,weatherlink.com 1.10,2013-06-21 12:25:00,
2013-06-21 08:40:00,61.8,57.0,30.23,SE,136,1.0,-999.0,83,-99.99,,,0.00,weatherlink.com 1.10,2013-06-21 12:40:00,
2013-06-21 08:55:00,63.4,58.0,30.22,SE,125,3.0,-999.0,81,-99.99,,,0.00,weatherlink.com 1.10,2013-06-21 12:55:00,
2013-06-21 09:10:00,63.7,57.0,30.22,ESE,107,4.0,-999.0,80,-99.99,,,0.00,weatherlink.com 1.10,2013-06-21 13:10:00,
2013-06-21 09:25:00,64.0,58.0,30.23,SE,141,5.0,-999.0,80,-99.99,,,0.00,weatherlink.com 1.10,2013-06-21 13:25:00,
2013-06-21 09:40:00,64.3,58.0,30.22,SE,131,3.0,-999.0,80,-99.99,,,0.00,weatherlink.com 1.10,2013-06-21 13:40:00,
2013-06-21 09:55:00,64.2,57.0,30.22,SSE,151,4.0,-999.0,78,-99.99,,,0.00,weatherlink.com 1.10,2013-06-21 13:55:00,
2013-06-21 10:10:00,64.3,58.0,30.22,SE,135,5.0,-999.0,79,-99.99,,,0.00,weatherlink.com 1.10,2013-06-21 14:10:00,
2013-06-21 10:25:00,64.7,58.0,30.22,SE,140,3.0,-999.0,79,-99.99,,,0.00,weatherlink.com 1.10,2013-06-21 14:25:00,
2013-06-21 10:40:00,65.0,58.0,30.22,SE,131,0.0,-999.0,79,-99.99,,,0.00,weatherlink.com 1.10,2013-06-21 14:40:00,
2013-06-21 10:55:00,65.4,59.0,30.22,ESE,105,3.0,-999.0,79,-99.99,,,0.00,weatherlink.com 1.10,2013-06-21 14:55:00,
2013-06-21 11:10:00,65.8,59.0,30.21,ESE,121,1.0,-999.0,78,-99.99,,,0.00,weatherlink.com 1.10,2013-06-21 15:10:00,
2013-06-21 11:25:00,66.1,59.0,30.21,SSE,157,2.0,-999.0,79,-99.99,,,0.00,weatherlink.com 1.10,2013-06-21 15:25:00,
2013-06-21 11:41:00,65.2,59.0,30.21,SE,142,5.0,-999.0,81,-99.99,,,0.00,weatherlink.com 1.10,2013-06-21 15:41:00,
2013-06-21 11:55:00,64.6,59.0,30.21,ESE,110,3.0,-999.0,81,-99.99,,,0.00,weatherlink.com 1.10,2013-06-21 15:55:00,
2013-06-21 12:25:00,63.7,59.0,30.21,SE,131,5.0,-999.0,85,-99.99,,,0.00,weatherlink.com 1.10,2013-06-21 16:25:00,
2013-06-21 12:56:00,63.5,60.0,30.20,SE,126,4.0,-999.0,88,-99.99,,,0.01,weatherlink.com 1.10,2013-06-21 16:56:00,
2013-06-21 13:11:00,63.3,60.0,30.20,SE,132,5.0,-999.0,88,-99.99,,,0.01,weatherlink.com 1.10,2013-06-21 17:11:00,
2013-06-21 13:26:00,63.3,60.0,30.18,ESE,113,4.0,-999.0,90,-99.99,,,0.01,weatherlink.com 1.10,2013-06-21 17:26:00,
2013-06-21 13:41:00,64.2,61.0,30.18,SE,128,3.0,-999.0,90,-99.99,,,0.01,weatherlink.com 1.10,2013-06-21 17:41:00,
2013-06-21 13:56:00,65.0,61.0,30.18,ESE,110,9.0,-999.0,88,-99.99,,,0.01,weatherlink.com 1.10,2013-06-21 17:56:00,
2013-06-21 14:26:00,64.9,60.0,30.17,ESE,105,5.0,-999.0,84,-99.99,,,0.01,weatherlink.com 1.10,2013-06-21 18:26:00,
2013-06-21 14:56:00,65.1,60.0,30.16,ESE,117,4.0,-999.0,84,-99.99,,,0.01,weatherlink.com 1.10,2013-06-21 18:56:00,
2013-06-21 15:26:00,65.2,60.0,30.16,East,98,6.0,-999.0,84,-99.99,,,0.01,weatherlink.com 1.10,2013-06-21 19:26:00,
2013-06-21 15:41:00,65.5,60.0,30.15,East,101,7.0,-999.0,83,-99.99,,,0.01,weatherlink.com 1.10,2013-06-21 19:41:00,
2013-06-21 16:11:00,66.4,60.0,30.13,East,100,12.0,-999.0,80,-99.99,,,0.01,weatherlink.com 1.10,2013-06-21 20:11:00,
2013-06-21 16:26:00,66.6,60.0,30.13,ESE,102,4.0,-999.0,79,-99.99,,,0.01,weatherlink.com 1.10,2013-06-21 20:26:00,
2013-06-21 16:41:00,66.2,60.0,30.14,SE,129,0.0,-999.0,79,-99.99,,,0.01,weatherlink.com 1.10,2013-06-21 20:41:00,
2013-06-21 16:56:00,65.1,60.0,30.15,ESE,114,3.0,-999.0,83,-99.99,,,0.02,weatherlink.com 1.10,2013-06-21 20:56:00,
2013-06-21 17:11:00,63.7,60.0,30.15,East,87,3.0,-999.0,88,-99.99,,,0.03,weatherlink.com 1.10,2013-06-21 21:11:00,
2013-06-21 17:26:00,63.3,60.0,30.13,ESE,109,8.0,-999.0,90,-99.99,,,0.05,weatherlink.com 1.10,2013-06-21 21:26:00,
2013-06-21 17:41:00,63.3,60.0,30.12,East,96,7.0,-999.0,90,-99.99,,,0.06,weatherlink.com 1.10,2013-06-21 21:41:00,
2013-06-21 17:56:00,63.0,60.0,30.13,ESE,109,4.0,-999.0,91,-99.99,,,0.07,weatherlink.com 1.10,2013-06-21 21:56:00,
2013-06-21 18:11:00,62.5,60.0,30.09,East,94,8.0,-999.0,91,-99.99,,,0.10,weatherlink.com 1.10,2013-06-21 22:11:00,
2013-06-21 18:26:00,62.6,60.0,30.09,ESE,118,5.0,-999.0,90,-99.99,,,0.10,weatherlink.com 1.10,2013-06-21 22:26:00,
2013-06-21 18:41:00,62.8,60.0,30.08,ESE,115,7.0,-999.0,91,-99.99,,,0.11,weatherlink.com 1.10,2013-06-21 22:41:00,
2013-06-21 18:56:00,63.1,60.0,30.07,ESE,116,4.0,-999.0,89,-99.99,,,0.11,weatherlink.com 1.10,2013-06-21 22:56:00,
2013-06-21 19:11:00,63.0,60.0,30.06,SE,126,4.0,-999.0,90,-99.99,,,0.11,weatherlink.com 1.10,2013-06-21 23:11:00,
2013-06-21 19:26:00,62.8,60.0,30.05,ESE,115,12.0,-999.0,91,-99.99,,,0.11,weatherlink.com 1.10,2013-06-21 23:26:00,
2013-06-21 19:41:00,62.9,60.0,30.05,East,100,12.0,-999.0,89,-99.99,,,0.11,weatherlink.com 1.10,2013-06-21 23:41:00,
2013-06-21 19:56:00,63.2,60.0,30.04,ESE,107,8.0,-999.0,89,-99.99,,,0.11,weatherlink.com 1.10,2013-06-21 23:56:00,
2013-06-21 20:11:00,62.9,60.0,30.04,East,97,9.0,-999.0,90,-99.99,,,0.13,weatherlink.com 1.10,2013-06-22 00:11:00,
2013-06-21 20:27:00,62.2,60.0,30.04,ESE,106,12.0,-999.0,92,-99.99,,,0.19,weatherlink.com 1.10,2013-06-22 00:27:00,
2013-06-21 20:42:00,62.0,60.0,30.08,WNW,289,8.0,-999.0,93,-99.99,,,0.23,weatherlink.com 1.10,2013-06-22 00:42:00,
2013-06-21 20:57:00,61.5,60.0,30.05,East,90,7.0,-999.0,94,-99.99,,,0.27,weatherlink.com 1.10,2013-06-22 00:57:00,
2013-06-21 21:12:00,61.8,60.0,30.05,East,96,5.0,-999.0,95,-99.99,,,0.28,weatherlink.com 1.10,2013-06-22 01:12:00,
2013-06-21 21:27:00,61.9,60.0,30.06,East,88,4.0,-999.0,94,-99.99,,,0.36,weatherlink.com 1.10,2013-06-22 01:27:00,
2013-06-21 21:42:00,61.7,60.0,30.06,ESE,108,3.0,-999.0,95,-99.99,,,0.50,weatherlink.com 1.10,2013-06-22 01:42:00,
2013-06-21 21:57:00,61.6,60.0,30.08,East,93,1.0,-999.0,95,-99.99,,,0.63,weatherlink.com 1.10,2013-06-22 01:57:00,
2013-06-21 22:12:00,61.6,61.0,30.07,ESE,122,3.0,-999.0,96,-99.99,,,0.65,weatherlink.com 1.10,2013-06-22 02:12:00,
2013-06-21 22:27:00,61.8,61.0,30.07,ESE,106,4.0,-999.0,96,-99.99,,,0.65,weatherlink.com 1.10,2013-06-22 02:27:00,
2013-06-21 22:42:00,61.9,61.0,30.05,East,96,5.0,-999.0,96,-99.99,,,0.65,weatherlink.com 1.10,2013-06-22 02:42:00,
2013-06-21 22:57:00,62.0,61.0,30.05,SE,134,6.0,-999.0,96,-99.99,,,0.65,weatherlink.com 1.10,2013-06-22 02:57:00,
2013-06-21 23:12:00,62.0,61.0,30.05,ESE,122,0.0,-999.0,96,-99.99,,,0.65,weatherlink.com 1.10,2013-06-22 03:12:00,
2013-06-21 23:27:00,62.1,61.0,30.05,SSE,153,2.0,-999.0,96,-99.99,,,0.65,weatherlink.com 1.10,2013-06-22 03:27:00,
2013-06-21 23:42:00,62.3,61.0,30.05,SSE,150,0.0,-999.0,96,-99.99,,,0.65,weatherlink.com 1.10,2013-06-22 03:42:00,
2013-06-21 23:57:00,62.2,61.0,30.04,ESE,123,2.0,-999.0,96,-99.99,,,0.65,weatherlink.com 1.10,2013-06-22 03:57:00,